Impacts METAR Board INFO
IDs:

KATL - Atlanta/Hartsfield-J, GA, US

Updated at: 0716 UTC 16 Dec 2017
Potential Impact None Slight Moderate High
Time15/19Z 15/20Z 15/21Z 15/22Z 15/23Z 16/00Z 16/01Z 16/02Z 16/03Z 16/04Z 16/05Z 16/06Z 16/07Z
VIS10 10 10 10 10 10 10 10 10 10 10 10 10
CIG180 130 140 150 200 200 250 250 250 -- -- -- --
CoverOVCOVCOVCBKNBKNBKNBKNBKNBKNSCTFEWSCTSCT
FltCatVFRVFRVFRVFRVFRVFRVFRVFRVFRVFRVFRVFRVFR
WX--------------------------
WDir280300290300320310320320310290280280280
WSpd11 12 11 12 12 10 10 8 7 6 7 6 6
WGst-- -- 22 -- -- -- 18 -- -- -- -- -- --
Raw hourly METARs
KATL 151852Z 28011KT 10SM FEW150 BKN180 OVC250 04/M04 A3008 RMK AO2 SLP191 T00441039
KATL 151952Z 30012KT 10SM BKN130 BKN150 OVC250 04/M04 A3008 RMK AO2 SLP193 VIRGA NE & SE & NW T00391044
KATL 152052Z 29011G22KT 10SM BKN140 BKN180 OVC200 04/M04 A3010 RMK AO2 SLP197 VIRGA DSNT NW-N T00391044 51010
KATL 152152Z 30012KT 10SM FEW120 BKN150 BKN250 03/M04 A3011 RMK AO2 SLP203 VIRGA OHD & ALQDS T00331044
KATL 152252Z 32012KT 10SM FEW120 SCT150 BKN200 BKN250 03/M04 A3013 RMK AO2 SLP210 VIRGA OHD-ALQDS T00281044
KATL 152352Z 31010KT 10SM FEW150 BKN200 BKN250 02/M04 A3016 RMK AO2 SLP221 VIRGA SE-SW T00221044 10056 20022 53021
KATL 160052Z 32010G18KT 10SM SCT200 BKN250 02/M04 A3018 RMK AO2 SLP226 T00171039
KATL 160152Z 32008KT 10SM SCT200 BKN250 01/M04 A3018 RMK AO2 SLP227 T00111039
KATL 160252Z 31007KT 10SM SCT200 BKN250 01/M04 A3019 RMK AO2 SLP230 T00061039 51008
KATL 160352Z 29006KT 10SM FEW200 SCT250 M01/M04 A3020 RMK AO2 SLP235 T10061044
KATL 160452Z 28007KT 10SM FEW250 M01/M04 A3021 RMK AO2 SLP237 T10111044 400781017
KATL 160552Z 28006KT 10SM SCT250 M02/M04 A3021 RMK AO2 SLP237 T10171044 10022 21017 51007
KATL 160652Z 28006KT 10SM SCT250 M02/M04 A3021 RMK AO2 SLP239 T10221044